Time;durP1;ratioP1;P1;durP2;ratioP2;P2;SDS_P1;SDS_P2;PMS_P1;PMS_P2;Temp;Humidity;BMP_temperature;BMP_pressure;BME280_temperature;BME280_humidity;BME280_pressure;Samples;Min_cycle;Max_cycle;Signal;HPM_P1;HPM_P2
2022/07/20 00:01:01;;;;;;;18.35;7.68;;;;;;;21.84;44.70;99215.41;5119480;27;20028;-58
2022/07/20 00:03:27;;;;;;;15.07;6.90;;;;;;;21.87;43.67;99209.31;5102787;27;20043;-58
2022/07/20 00:05:52;;;;;;;18.98;7.93;;;;;;;21.74;45.00;99213.78;5116541;27;20489;-57
2022/07/20 00:11:19;;;;;;;17.65;7.63;;;;;;;21.57;47.54;99221.09;5118587;27;20026;-58
2022/07/20 00:11:21;;;;;;;26.00;8.02;;;;;;;21.03;49.14;99218.41;5111438;27;20363;-61
2022/07/20 00:13:57;;;;;;;11.63;6.95;;;;;;;21.02;49.77;99211.38;5114776;27;20031;-58
2022/07/20 00:16:24;;;;;;;22.13;7.30;;;;;;;20.95;50.25;99208.28;5105137;28;20358;-58
2022/07/20 00:18:49;;;;;;;16.73;7.00;;;;;;;20.82;49.71;99209.97;5120771;27;20034;-57
2022/07/20 00:21:15;;;;;;;17.83;7.07;;;;;;;20.76;50.74;99209.28;5121106;27;20024;-57
2022/07/20 00:23:40;;;;;;;20.52;7.20;;;;;;;20.70;49.83;99207.81;5120231;27;20027;-57
2022/07/20 00:26:06;;;;;;;24.00;7.60;;;;;;;20.76;49.46;99198.38;5117957;27;20043;-57
2022/07/20 00:28:31;;;;;;;20.63;7.03;;;;;;;20.88;49.60;99204.06;5116937;27;20027;-58
2022/07/20 00:30:57;;;;;;;22.80;7.43;;;;;;;21.01;49.44;99209.75;5104408;27;20035;-57
2022/07/20 00:33:22;;;;;;;20.48;7.15;;;;;;;21.09;47.32;99196.19;5112868;27;20024;-57
2022/07/20 00:35:48;;;;;;;20.50;7.20;;;;;;;21.12;46.57;99194.75;5120950;27;20027;-57
2022/07/20 00:38:14;;;;;;;16.23;7.47;;;;;;;20.81;47.39;99198.25;5118277;27;20046;-57
2022/07/20 00:40:39;;;;;;;16.10;7.80;;;;;;;20.94;46.48;99203.94;5115439;27;20032;-57
2022/07/20 00:43:05;;;;;;;16.58;7.38;;;;;;;20.94;47.16;99198.50;5117330;27;20027;-57
2022/07/20 00:45:30;;;;;;;27.42;8.43;;;;;;;21.16;45.33;99195.72;5116192;27;20023;-57
2022/07/20 00:47:56;;;;;;;29.17;8.48;;;;;;;21.14;46.07;99197.94;5100986;27;20160;-57
2022/07/20 00:50:21;;;;;;;19.20;8.20;;;;;;;21.12;46.62;99189.31;5116843;27;20019;-57
2022/07/20 00:52:47;;;;;;;19.73;7.43;;;;;;;20.93;46.58;99196.88;5117411;27;20019;-57
2022/07/20 00:55:12;;;;;;;23.00;7.50;;;;;;;20.90;46.95;99199.13;5101523;27;20479;-58
2022/07/20 00:57:37;;;;;;;20.08;7.30;;;;;;;20.97;46.18;99198.69;5118828;27;20019;-57
2022/07/20 01:00:04;;;;;;;24.15;7.50;;;;;;;20.86;47.74;99195.41;5092684;28;20027;-57
2022/07/20 01:02:30;;;;;;;25.80;8.40;;;;;;;20.85;47.17;99188.34;5118451;27;20027;-57
2022/07/20 01:04:55;;;;;;;17.85;8.23;;;;;;;20.90;46.99;99195.59;5105829;27;20048;-58
2022/07/20 01:07:20;;;;;;;34.63;7.90;;;;;;;20.78;47.26;99200.81;5113748;27;20024;-57
2022/07/20 01:09:46;;;;;;;19.33;8.05;;;;;;;20.59;49.43;99198.25;5106983;28;20547;-57
2022/07/20 01:12:11;;;;;;;16.92;7.78;;;;;;;20.26;50.40;99206.63;5112016;27;20028;-58
2022/07/20 01:14:37;;;;;;;18.73;7.80;;;;;;;20.19;50.38;99198.06;5122412;27;20365;-57
2022/07/20 01:17:02;;;;;;;20.75;7.40;;;;;;;20.14;50.13;99192.75;5115673;28;20103;-57
2022/07/20 01:19:28;;;;;;;19.98;7.53;;;;;;;20.20;50.40;99189.63;5115064;28;20023;-57
2022/07/20 01:21:53;;;;;;;17.98;7.40;;;;;;;20.22;49.69;99194.75;5104624;28;20027;-58
2022/07/20 01:24:18;;;;;;;25.27;7.72;;;;;;;20.26;50.02;99182.94;5115167;28;20057;-57
2022/07/20 01:26:45;;;;;;;19.67;7.65;;;;;;;20.20;49.32;99186.91;5125064;28;20031;-58
2022/07/20 01:29:10;;;;;;;20.00;7.50;;;;;;;20.33;49.72;99187.94;5121423;28;20093;-57
2022/07/20 01:31:36;;;;;;;22.45;7.75;;;;;;;20.23;51.08;99191.72;5103157;28;20026;-57
2022/07/20 01:34:02;;;;;;;21.90;8.00;;;;;;;20.10;50.86;99198.00;5097036;28;20027;-57
2022/07/20 01:36:27;;;;;;;16.23;7.35;;;;;;;19.90;52.42;99188.38;5090143;28;20020;-56
2022/07/20 01:38:52;;;;;;;18.27;7.70;;;;;;;19.80;52.65;99194.03;5116886;28;20046;-57
2022/07/20 01:41:18;;;;;;;20.33;7.72;;;;;;;19.66;52.65;99198.66;5115828;28;20020;-57
2022/07/20 01:43:43;;;;;;;26.73;7.55;;;;;;;19.69;51.50;99192.63;5094073;28;20027;-57
2022/07/20 01:46:09;;;;;;;26.33;7.88;;;;;;;19.98;49.28;99190.38;5121632;28;20030;-57
2022/07/20 01:48:34;;;;;;;17.67;7.88;;;;;;;20.13;50.10;99191.16;5117962;28;20027;-57
2022/07/20 01:50:59;;;;;;;20.38;8.02;;;;;;;20.20;49.12;99186.09;5096755;28;20478;-56
2022/07/20 01:53:25;;;;;;;23.58;7.78;;;;;;;20.19;48.70;99192.63;5122422;28;20075;-57
2022/07/20 01:55:51;;;;;;;18.80;8.07;;;;;;;20.09;49.45;99190.13;5120833;28;20027;-57
2022/07/20 01:58:17;;;;;;;26.55;8.13;;;;;;;20.11;50.10;99194.16;5122036;28;20076;-57
2022/07/20 02:00:42;;;;;;;20.30;7.75;;;;;;;19.88;51.09;99189.78;5117229;28;20023;-57
2022/07/20 02:03:08;;;;;;;24.65;8.52;;;;;;;20.04;48.63;99183.72;5122738;28;20030;-57
2022/07/20 02:05:34;;;;;;;25.92;8.55;;;;;;;20.32;47.50;99183.63;5123948;27;20108;-56
2022/07/20 02:07:59;;;;;;;27.05;8.55;;;;;;;20.29;47.72;99192.38;5118301;27;20537;-57
2022/07/20 02:10:24;;;;;;;24.23;7.63;;;;;;;20.16;48.24;99190.53;5120293;27;20031;-57
2022/07/20 02:12:50;;;;;;;18.23;8.27;;;;;;;19.81;51.22;99195.63;5120440;27;20072;-56
2022/07/20 02:16:14;;;;;;;15.88;7.85;;;;;;;19.41;53.02;99198.03;5122233;27;20381;-57
2022/07/20 02:18:07;;;;;;;20.27;7.55;;;;;;;19.33;53.45;99196.03;5122519;27;20043;-56
2022/07/20 02:20:32;;;;;;;17.25;8.45;;;;;;;19.28;52.53;99198.84;5122310;27;20115;-56
2022/07/20 02:22:58;;;;;;;28.90;8.00;;;;;;;19.41;51.88;99192.59;5116165;27;20141;-56
2022/07/20 02:25:23;;;;;;;22.13;8.68;;;;;;;19.45;51.22;99190.91;5119209;27;20020;-56
2022/07/20 02:27:49;;;;;;;16.33;8.48;;;;;;;19.43;51.70;99187.69;5121692;27;20028;-56
2022/07/20 02:30:14;;;;;;;24.67;8.45;;;;;;;19.67;50.00;99192.94;5122234;27;20628;-56
2022/07/20 02:32:40;;;;;;;22.77;8.10;;;;;;;19.81;51.11;99191.00;5122873;27;20031;-57
2022/07/20 02:35:05;;;;;;;23.25;8.13;;;;;;;19.73;50.70;99188.19;5119143;27;20028;-57
2022/07/20 02:37:31;;;;;;;16.50;8.02;;;;;;;19.71;51.48;99191.22;5122941;27;20043;-57
2022/07/20 02:39:56;;;;;;;17.00;8.65;;;;;;;19.77;49.69;99194.66;5125830;27;20373;-56
2022/07/20 02:42:22;;;;;;;21.33;8.43;;;;;;;19.79;49.67;99190.53;5118509;27;20046;-56
2022/07/20 02:44:47;;;;;;;15.18;7.53;;;;;;;19.79;50.27;99190.53;5123452;27;20031;-56
2022/07/20 02:47:12;;;;;;;26.88;8.93;;;;;;;19.75;50.16;99184.06;5119251;27;20020;-56
2022/07/20 02:49:38;;;;;;;20.30;8.43;;;;;;;19.73;49.96;99182.75;5109760;27;20023;-56
2022/07/20 02:52:03;;;;;;;17.08;8.13;;;;;;;19.31;51.44;99181.94;5117956;27;20377;-56
2022/07/20 02:54:29;;;;;;;21.75;7.72;;;;;;;19.33;51.10;99177.00;5123132;27;20051;-56
2022/07/20 02:56:54;;;;;;;15.15;7.07;;;;;;;19.50;52.53;99177.22;5113840;27;20016;-56
2022/07/20 02:59:19;;;;;;;16.17;8.60;;;;;;;19.47;50.88;99172.38;5118762;27;20024;-57
2022/07/20 03:01:45;;;;;;;23.08;8.10;;;;;;;19.52;51.66;99168.72;5124658;27;20031;-56
2022/07/20 03:04:10;;;;;;;17.27;7.80;;;;;;;19.76;50.74;99165.84;5120811;27;20040;-56
2022/07/20 03:06:36;;;;;;;14.02;8.30;;;;;;;19.99;49.56;99170.22;5121134;27;20031;-56
2022/07/20 03:09:02;;;;;;;25.48;8.07;;;;;;;20.14;49.42;99162.81;5118607;27;20034;-56
2022/07/20 03:11:27;;;;;;;21.92;8.82;;;;;;;19.91;50.14;99164.69;5098244;28;20027;-57
2022/07/20 03:13:53;;;;;;;19.20;7.90;;;;;;;19.68;51.14;99166.56;5116820;27;20015;-56
2022/07/20 03:16:18;;;;;;;15.50;7.53;;;;;;;19.33;53.80;99175.09;5097974;28;20027;-56
2022/07/20 03:18:43;;;;;;;19.73;7.63;;;;;;;18.98;54.84;99182.00;5120648;27;20378;-56
2022/07/20 03:21:09;;;;;;;19.88;8.25;;;;;;;19.00;54.64;99190.66;5120496;27;20035;-56
2022/07/20 03:23:34;;;;;;;16.40;8.07;;;;;;;18.94;54.41;99189.13;5117811;27;20023;-56
2022/07/20 03:26:00;;;;;;;16.83;7.70;;;;;;;18.80;55.52;99196.44;5118677;27;20035;-56
2022/07/20 03:28:25;;;;;;;18.85;7.60;;;;;;;18.29;57.70;99179.03;5128037;27;20084;-56
2022/07/20 03:30:51;;;;;;;18.45;7.65;;;;;;;18.50;55.73;99185.75;5115888;27;20035;-57
2022/07/20 03:33:16;;;;;;;19.88;7.60;;;;;;;18.84;54.42;99189.31;5119997;27;20080;-56
2022/07/20 03:35:41;;;;;;;25.88;8.93;;;;;;;18.94;53.32;99189.13;5099506;28;20023;-55
2022/07/20 03:38:07;;;;;;;23.92;8.98;;;;;;;19.11;53.64;99194.78;5124178;27;20051;-56
2022/07/20 03:40:32;;;;;;;16.13;8.52;;;;;;;19.15;53.27;99190.38;5117407;27;20473;-56
2022/07/20 03:42:58;;;;;;;14.38;7.50;;;;;;;18.89;55.68;99200.06;5117299;27;20038;-56
2022/07/20 03:45:23;;;;;;;20.23;8.50;;;;;;;18.84;55.16;99202.88;5116144;27;20034;-58
2022/07/20 03:47:48;;;;;;;16.58;7.90;;;;;;;18.99;55.51;99191.75;5073069;28;20032;-56
2022/07/20 03:50:14;;;;;;;29.20;8.07;;;;;;;18.83;55.89;99204.00;5123797;27;20039;-58
2022/07/20 03:52:39;;;;;;;22.35;8.55;;;;;;;18.85;56.75;99201.78;5119839;27;20093;-58
2022/07/20 03:55:05;;;;;;;18.77;8.50;;;;;;;18.74;56.55;99201.09;5124438;27;20036;-57
2022/07/20 03:57:31;;;;;;;19.08;8.43;;;;;;;19.35;54.91;99199.25;5119761;27;20053;-58
2022/07/20 03:59:56;;;;;;;18.02;8.52;;;;;;;20.34;51.75;99207.81;5102273;27;20031;-56
2022/07/20 04:02:21;;;;;;;20.85;7.85;;;;;;;20.45;52.41;99207.28;5113799;27;20457;-56
2022/07/20 04:04:47;;;;;;;16.48;7.75;;;;;;;20.54;51.90;99206.53;5118342;27;20062;-56
2022/07/20 04:07:12;;;;;;;16.88;8.50;;;;;;;20.99;50.83;99211.97;5123431;27;20254;-56
2022/07/20 04:09:43;;;;;;;20.42;7.93;;;;;;;21.78;49.00;99205.75;5122562;27;20034;-56
2022/07/20 04:12:16;;;;;;;19.50;7.57;;;;;;;21.87;49.72;99208.53;5119275;27;20035;-54
2022/07/20 04:14:42;;;;;;;18.40;7.82;;;;;;;22.81;47.01;99222.53;5117037;27;20027;-56
2022/07/20 04:17:07;;;;;;;21.95;7.60;;;;;;;23.34;45.03;99228.69;5121141;27;20054;-56
2022/07/20 04:19:36;;;;;;;18.83;7.82;;;;;;;23.67;44.91;99228.91;5117490;27;20020;-57
2022/07/20 04:22:02;;;;;;;15.90;7.70;;;;;;;23.33;44.91;99224.38;5109916;27;20027;-56
2022/07/20 04:24:27;;;;;;;15.50;7.22;;;;;;;23.38;45.51;99221.47;5121458;27;20423;-56
2022/07/20 04:26:53;;;;;;;16.20;7.55;;;;;;;23.47;45.50;99231.22;5110428;27;20039;-56
2022/07/20 04:29:18;;;;;;;21.63;8.23;;;;;;;23.65;45.19;99231.94;5121872;27;20518;-56
2022/07/20 04:31:44;;;;;;;16.70;7.20;;;;;;;24.50;42.99;99222.75;5114998;27;20023;-57
2022/07/20 04:34:09;;;;;;;17.00;7.82;;;;;;;25.89;40.52;99230.63;5094228;28;20473;-56
2022/07/20 04:36:35;;;;;;;18.05;7.38;;;;;;;25.89;40.53;99231.44;5120675;27;20026;-56
2022/07/20 04:39:00;;;;;;;13.63;7.72;;;;;;;26.47;39.01;99234.72;5093611;28;20032;-57
2022/07/20 04:41:25;;;;;;;30.13;8.55;;;;;;;26.35;39.34;99236.72;5106382;27;20015;-57
2022/07/20 04:43:51;;;;;;;20.20;8.45;;;;;;;26.72;38.83;99248.41;5118621;27;20028;-58
2022/07/20 04:46:16;;;;;;;19.25;7.90;;;;;;;27.13;38.38;99249.13;5120337;27;20030;-58
2022/07/20 04:48:42;;;;;;;19.67;8.85;;;;;;;27.04;38.89;99246.56;5100186;28;20019;-57
2022/07/20 04:51:07;;;;;;;16.45;7.70;;;;;;;26.64;39.36;99249.38;5118079;27;20024;-57
2022/07/20 04:53:33;;;;;;;18.17;7.80;;;;;;;27.55;37.66;99248.66;5115992;27;20518;-57
2022/07/20 04:55:59;;;;;;;20.55;8.50;;;;;;;28.15;36.56;99257.56;5117571;27;20539;-57
2022/07/20 04:58:24;;;;;;;17.27;8.45;;;;;;;28.25;35.80;99260.94;5115571;27;20030;-57
2022/07/20 05:00:49;;;;;;;20.58;8.85;;;;;;;28.25;36.71;99269.19;5108725;27;20489;-57
2022/07/20 05:03:15;;;;;;;31.83;9.68;;;;;;;29.04;35.58;99264.16;5122076;27;20140;-58
2022/07/20 05:05:40;;;;;;;19.63;7.78;;;;;;;29.12;36.24;99256.03;5102774;27;20468;-57
2022/07/20 05:08:06;;;;;;;19.80;8.40;;;;;;;28.75;35.74;99260.03;5117788;27;20028;-57
2022/07/20 05:10:31;;;;;;;23.33;8.75;;;;;;;29.18;35.40;99258.16;5115867;27;20482;-57
2022/07/20 05:12:57;;;;;;;17.42;8.10;;;;;;;29.89;33.93;99264.09;5119880;27;20106;-57
2022/07/20 05:15:25;;;;;;;25.80;8.63;;;;;;;29.53;34.94;99261.88;5116564;28;20045;-57
2022/07/20 05:17:50;;;;;;;24.23;9.07;;;;;;;29.74;35.04;99259.50;5109160;28;20066;-57
2022/07/20 05:20:16;;;;;;;21.88;8.30;;;;;;;29.95;33.83;99272.06;5118279;28;20035;-56
2022/07/20 05:22:42;;;;;;;27.05;9.52;;;;;;;29.18;34.11;99280.22;5119325;28;20032;-58
2022/07/20 05:25:07;;;;;;;27.90;9.48;;;;;;;28.93;34.67;99282.47;5117109;28;20431;-57
2022/07/20 05:27:33;;;;;;;24.08;9.18;;;;;;;28.67;34.88;99288.63;5123073;28;20024;-57
2022/07/20 05:29:58;;;;;;;21.92;8.98;;;;;;;29.11;34.55;99295.84;5113214;28;20039;-57
2022/07/20 05:32:24;;;;;;;28.58;8.93;;;;;;;29.43;34.44;99300.00;5126603;28;20027;-57
2022/07/20 05:34:49;;;;;;;24.88;8.90;;;;;;;30.07;32.89;99308.56;5116501;28;20028;-57
2022/07/20 05:37:15;;;;;;;25.40;8.73;;;;;;;30.50;31.89;99308.41;5116258;28;20031;-56
2022/07/20 05:39:40;;;;;;;26.40;8.75;;;;;;;28.57;34.73;99308.53;5119241;27;20080;-56
2022/07/20 05:42:05;;;;;;;36.40;9.18;;;;;;;29.07;34.11;99308.78;5100737;27;20077;-57
2022/07/20 05:44:31;;;;;;;24.52;8.57;;;;;;;29.70;32.25;99300.06;5119979;27;20023;-57
2022/07/20 05:46:56;;;;;;;32.47;9.73;;;;;;;30.22;31.53;99298.50;5122232;27;20023;-57
2022/07/20 05:49:22;;;;;;;22.75;8.93;;;;;;;30.97;30.49;99312.56;5123122;27;20412;-57
2022/07/20 05:51:48;;;;;;;27.65;8.93;;;;;;;31.51;30.18;99316.75;5099504;28;20537;-57
2022/07/20 05:54:13;;;;;;;28.67;8.57;;;;;;;32.44;29.29;99325.78;5120815;27;20019;-57
2022/07/20 05:56:39;;;;;;;29.02;9.13;;;;;;;31.31;30.47;99321.66;5117291;27;20504;-57
2022/07/20 05:59:04;;;;;;;34.65;8.80;;;;;;;30.71;31.55;99333.59;5075883;27;20225;-57
2022/07/20 06:01:30;;;;;;;34.55;8.63;;;;;;;30.04;32.73;99325.88;5125199;27;20527;-57
2022/07/20 06:03:55;;;;;;;41.88;9.43;;;;;;;30.69;31.54;99341.47;5118250;27;20457;-57
2022/07/20 06:06:20;;;;;;;36.33;9.73;;;;;;;31.85;29.48;99346.31;5095474;28;20374;-57
2022/07/20 06:08:46;;;;;;;36.30;10.10;;;;;;;32.93;28.46;99345.88;5120653;27;20032;-57
2022/07/20 06:11:11;;;;;;;41.08;9.85;;;;;;;32.92;27.80;99347.03;5120405;27;20038;-57
2022/07/20 06:13:37;;;;;;;41.17;9.38;;;;;;;33.36;27.50;99345.25;5119079;27;20028;-57
2022/07/20 06:16:02;;;;;;;58.78;10.18;;;;;;;34.56;26.20;99342.88;5124217;27;20015;-57
2022/07/20 06:18:27;;;;;;;49.78;10.25;;;;;;;34.66;25.44;99342.06;5125176;27;20022;-57
2022/07/20 06:20:53;;;;;;;73.60;10.90;;;;;;;34.94;25.14;99349.50;5086521;28;20028;-57
2022/07/20 06:23:18;;;;;;;57.88;10.70;;;;;;;33.85;26.57;99349.28;5118480;27;20027;-57
2022/07/20 06:25:44;;;;;;;49.78;9.52;;;;;;;32.85;27.76;99339.50;5115619;27;20027;-57
2022/07/20 06:28:10;;;;;;;54.88;10.40;;;;;;;33.79;26.39;99334.19;5116602;27;20027;-57
2022/07/20 06:30:35;;;;;;;64.85;9.43;;;;;;;30.64;31.08;99333.50;5120429;27;20048;-57
2022/07/20 06:33:01;;;;;;;51.15;10.27;;;;;;;30.71;30.19;99332.78;5118949;27;20032;-57
2022/07/20 06:35:26;;;;;;;59.55;11.63;;;;;;;33.86;27.47;99339.75;5102741;27;20061;-57
2022/07/20 06:37:52;;;;;;;77.72;11.80;;;;;;;35.04;25.65;99335.94;5122838;27;20370;-57
2022/07/20 06:40:17;;;;;;;82.50;10.52;;;;;;;36.53;23.72;99349.97;5123831;27;20027;-57
2022/07/20 06:42:42;;;;;;;80.55;11.57;;;;;;;36.71;23.76;99353.38;5095895;27;20424;-57
2022/07/20 06:45:08;;;;;;;80.97;11.50;;;;;;;36.55;23.82;99350.38;5125577;27;20019;-57
2022/07/20 06:47:34;;;;;;;61.42;11.13;;;;;;;36.49;24.10;99352.00;5097842;28;20024;-58
2022/07/20 06:49:59;;;;;;;82.15;11.43;;;;;;;34.00;26.78;99361.19;5122013;27;20030;-57
2022/07/20 06:52:25;;;;;;;72.93;12.25;;;;;;;32.39;29.50;99355.88;5121307;27;20023;-57
2022/07/20 06:54:50;;;;;;;113.38;13.15;;;;;;;33.88;27.63;99354.06;5123026;27;20349;-56
2022/07/20 06:57:15;;;;;;;97.15;11.98;;;;;;;33.72;28.05;99358.03;5115357;27;20032;-56
2022/07/20 06:59:41;;;;;;;119.15;13.07;;;;;;;35.67;25.80;99363.88;5127242;27;20019;-57
2022/07/20 07:02:06;;;;;;;124.32;13.40;;;;;;;36.30;25.24;99377.75;5129166;27;20054;-57
2022/07/20 07:04:32;;;;;;;91.43;12.65;;;;;;;34.34;26.49;99375.50;5108199;27;20036;-57
2022/07/20 07:06:58;;;;;;;98.63;13.35;;;;;;;36.15;25.32;99377.88;5102140;28;20027;-56
2022/07/20 07:09:24;;;;;;;73.28;11.00;;;;;;;37.08;24.63;99376.91;5117513;27;20477;-56
2022/07/20 07:11:49;;;;;;;41.05;9.27;;;;;;;37.28;22.78;99374.22;5108920;27;20035;-57
2022/07/20 07:14:15;;;;;;;28.95;8.07;;;;;;;36.30;24.54;99375.75;5114878;27;20032;-57
2022/07/20 07:16:40;;;;;;;31.52;8.07;;;;;;;36.41;24.03;99384.00;5124035;27;20110;-57
2022/07/20 07:19:06;;;;;;;44.00;8.20;;;;;;;37.21;23.16;99390.31;5117602;27;20024;-57
2022/07/20 07:21:31;;;;;;;34.25;7.70;;;;;;;36.50;23.36;99396.25;5096008;28;20032;-57
2022/07/20 07:23:57;;;;;;;27.73;7.95;;;;;;;36.54;23.61;99390.63;5118197;27;20499;-56
2022/07/20 07:26:22;;;;;;;29.90;8.30;;;;;;;35.31;24.37;99398.31;5119370;27;20023;-57
2022/07/20 07:28:48;;;;;;;34.28;7.95;;;;;;;36.12;24.47;99401.00;5100468;27;20037;-57
2022/07/20 07:31:15;;;;;;;38.22;8.75;;;;;;;35.97;25.33;99402.28;5123377;27;20033;-57
2022/07/20 07:33:40;;;;;;;38.28;8.55;;;;;;;35.15;26.63;99400.78;5119110;27;20019;-57
2022/07/20 07:36:06;;;;;;;42.53;8.88;;;;;;;35.83;25.46;99412.34;5122082;27;20034;-57
2022/07/20 07:38:31;;;;;;;34.13;8.65;;;;;;;34.56;27.11;99429.91;5112080;27;20026;-59
2022/07/20 07:40:57;;;;;;;31.58;8.75;;;;;;;36.69;24.25;99433.19;5109665;27;20034;-57
2022/07/20 07:43:22;;;;;;;56.45;11.10;;;;;;;34.88;25.97;99425.53;5085688;27;20042;-56
2022/07/20 07:45:51;;;;;;;45.67;11.82;;;;;;;36.16;25.51;99426.88;5082550;28;20043;-58
2022/07/20 07:48:16;;;;;;;41.40;12.98;;;;;;;35.82;26.47;99444.22;5104930;27;20049;-56
2022/07/20 07:50:43;;;;;;;34.38;14.15;;;;;;;35.74;26.30;99462.19;5087706;27;20470;-56
2022/07/20 07:53:10;;;;;;;52.15;19.05;;;;;;;35.19;28.00;99463.63;5090964;27;20028;-56
2022/07/20 07:55:36;;;;;;;63.45;20.80;;;;;;;34.79;29.19;99470.47;5077407;28;20058;-56
2022/07/20 07:58:01;;;;;;;55.28;19.73;;;;;;;34.89;29.29;99494.69;5101093;27;20027;-56
2022/07/20 08:00:27;;;;;;;66.82;21.15;;;;;;;35.27;29.00;99531.22;5111548;27;20451;-56
2022/07/20 08:02:53;;;;;;;62.45;22.17;;;;;;;35.18;30.05;99548.38;5115247;27;20489;-56
2022/07/20 08:05:19;;;;;;;43.50;20.83;;;;;;;34.25;30.73;99540.03;5115857;27;20126;-56
2022/07/20 08:07:44;;;;;;;38.05;20.98;;;;;;;33.93;31.05;99523.25;5119354;27;20102;-56
2022/07/20 08:10:09;;;;;;;45.85;20.17;;;;;;;34.87;29.84;99513.78;5118709;27;20062;-58
2022/07/20 08:12:36;;;;;;;66.45;22.08;;;;;;;33.51;31.79;99513.53;5118445;27;20064;-56
2022/07/20 08:15:02;;;;;;;65.43;21.25;;;;;;;33.48;32.34;99517.09;5120517;27;20037;-58
2022/07/20 08:17:27;;;;;;;64.90;24.23;;;;;;;33.67;31.98;99500.16;5116753;27;20579;-56
2022/07/20 08:19:52;;;;;;;58.13;23.98;;;;;;;33.50;33.17;99507.19;5122033;27;20234;-56
2022/07/20 08:22:18;;;;;;;69.72;26.75;;;;;;;33.04;34.05;99509.72;5114154;27;20035;-56
2022/07/20 08:24:44;;;;;;;61.13;27.27;;;;;;;34.09;32.81;99509.00;5119080;27;20055;-56
2022/07/20 08:27:10;;;;;;;55.28;25.08;;;;;;;33.52;33.56;99504.00;5120984;27;20096;-56
2022/07/20 08:29:35;;;;;;;82.88;27.95;;;;;;;32.60;34.69;99508.63;5123989;27;20031;-56
2022/07/20 08:32:01;;;;;;;67.63;25.42;;;;;;;33.59;33.50;99503.28;5116745;27;20038;-56
2022/07/20 08:34:26;;;;;;;56.78;27.27;;;;;;;33.30;33.62;99503.13;5119992;27;20023;-56
2022/07/20 08:36:52;;;;;;;51.50;27.02;;;;;;;33.39;34.46;99502.78;5114007;27;20142;-56
2022/07/20 08:39:17;;;;;;;74.97;27.90;;;;;;;33.45;34.25;99496.47;5118500;27;20526;-56
2022/07/20 08:41:42;;;;;;;69.63;27.85;;;;;;;33.08;34.92;99478.03;5116892;27;20037;-56
2022/07/20 08:44:08;;;;;;;54.15;27.38;;;;;;;32.47;35.12;99484.28;5098080;27;20368;-56
2022/07/20 08:46:34;;;;;;;56.78;26.13;;;;;;;32.72;35.05;99482.53;5111603;27;20022;-56
2022/07/20 08:49:00;;;;;;;69.53;27.27;;;;;;;33.01;33.39;99491.03;5099497;27;20030;-55
2022/07/20 08:51:25;;;;;;;61.47;26.63;;;;;;;33.33;33.60;99479.34;5121701;27;20035;-56
2022/07/20 08:53:51;;;;;;;95.85;29.58;;;;;;;33.06;34.25;99476.81;5121400;27;20397;-57
2022/07/20 08:56:16;;;;;;;82.20;27.05;;;;;;;33.44;33.16;99483.75;5105049;28;20032;-56
2022/07/20 08:58:42;;;;;;;75.10;26.70;;;;;;;33.60;33.15;99483.44;5118896;27;20015;-56
2022/07/20 09:01:13;;;;;;;77.50;25.58;;;;;;;32.21;34.96;99483.28;5117421;27;20019;-56
2022/07/20 09:03:41;;;;;;;55.97;25.63;;;;;;;32.58;34.88;99477.69;5117881;27;20089;-56
2022/07/20 09:06:06;;;;;;;51.90;24.80;;;;;;;32.33;34.76;99488.53;5115783;27;20114;-56
2022/07/20 09:08:32;;;;;;;67.00;25.63;;;;;;;33.16;33.68;99476.09;5119058;27;20114;-56
2022/07/20 09:11:00;;;;;;;67.57;24.73;;;;;;;31.89;35.69;99467.09;5100495;28;20382;-57
2022/07/20 09:13:30;;;;;;;70.90;25.10;;;;;;;32.02;35.48;99462.91;5095092;28;20027;-57
2022/07/20 09:15:56;;;;;;;62.78;25.15;;;;;;;32.05;35.16;99474.41;5084398;28;20034;-56
2022/07/20 09:18:29;;;;;;;83.78;25.83;;;;;;;32.14;35.92;99472.91;5108371;28;20381;-56
2022/07/20 09:21:05;;;;;;;69.88;26.58;;;;;;;32.92;34.87;99487.81;5111837;28;20036;-57
2022/07/20 09:23:33;;;;;;;62.95;25.55;;;;;;;32.71;35.26;99472.63;5109496;28;20020;-57
2022/07/20 09:26:01;;;;;;;66.00;26.75;;;;;;;32.34;35.15;99472.69;5113584;28;20030;-57
2022/07/20 09:28:45;;;;;;;62.70;25.30;;;;;;;33.50;33.91;99473.84;5120024;28;20423;-57
2022/07/20 09:31:13;;;;;;;69.20;25.90;;;;;;;32.87;34.64;99473.13;5094759;28;20092;-56
2022/07/20 09:33:38;;;;;;;57.60;24.52;;;;;;;32.36;35.22;99471.13;5098972;28;20434;-57
2022/07/20 09:36:05;;;;;;;51.50;24.83;;;;;;;32.30;35.16;99481.00;5114124;28;20107;-56
2022/07/20 09:38:36;;;;;;;53.78;26.25;;;;;;;31.29;37.05;99467.97;5113726;28;20152;-57
2022/07/20 09:41:19;;;;;;;45.53;25.60;;;;;;;31.98;35.88;99475.94;5107806;28;20030;-56
2022/07/20 09:43:45;;;;;;;45.25;24.38;;;;;;;33.14;33.79;99483.22;5108381;28;20028;-56
2022/07/20 09:46:16;;;;;;;52.63;23.73;;;;;;;32.50;34.41;99472.44;5122274;28;20031;-57
2022/07/20 09:48:46;;;;;;;48.97;24.73;;;;;;;33.48;33.01;99483.78;5122111;28;20019;-57
2022/07/20 09:51:37;;;;;;;60.92;24.13;;;;;;;32.60;34.03;99485.59;5094799;28;20140;-57
2022/07/20 09:54:05;;;;;;;57.17;25.17;;;;;;;32.26;34.78;99485.72;5110479;28;20036;-57
2022/07/20 09:56:30;;;;;;;49.47;24.60;;;;;;;31.95;35.69;99476.72;5118661;28;20471;-57
2022/07/20 09:58:57;;;;;;;54.88;26.38;;;;;;;32.36;35.19;99485.00;5110255;28;20156;-57
2022/07/20 10:01:27;;;;;;;52.72;24.65;;;;;;;31.51;36.47;99488.47;5082855;28;20022;-56
2022/07/20 10:03:54;;;;;;;52.13;24.05;;;;;;;31.33;37.20;99481.88;5114904;28;20386;-56
2022/07/20 10:06:20;;;;;;;44.08;24.27;;;;;;;31.91;36.46;99470.28;5120181;28;20076;-56
2022/07/20 10:08:47;;;;;;;48.03;24.67;;;;;;;33.06;34.51;99474.06;5121341;28;20031;-56
2022/07/20 10:11:13;;;;;;;62.15;24.73;;;;;;;34.00;33.75;99473.22;5098281;28;20513;-56
2022/07/20 10:13:38;;;;;;;49.78;24.58;;;;;;;32.85;35.13;99464.38;5108332;28;20024;-57
2022/07/20 10:16:09;;;;;;;54.20;25.25;;;;;;;33.69;34.65;99464.41;5088265;28;20050;-57
2022/07/20 10:18:34;;;;;;;51.03;23.85;;;;;;;33.21;34.86;99461.81;5096612;28;20027;-58
2022/07/20 10:21:00;;;;;;;53.70;24.73;;;;;;;33.07;35.37;99470.06;5083033;28;20032;-56
2022/07/20 10:23:26;;;;;;;42.80;23.98;;;;;;;32.71;34.97;99463.50;5118370;28;20023;-57
2022/07/20 10:25:52;;;;;;;54.08;24.35;;;;;;;32.87;35.32;99464.81;5098910;27;20039;-57
2022/07/20 10:28:32;;;;;;;44.97;25.02;;;;;;;33.30;34.97;99465.03;5076251;27;20088;-57
2022/07/20 10:31:04;;;;;;;50.20;25.75;;;;;;;32.73;35.44;99452.81;5116894;27;20386;-57
2022/07/20 10:33:32;;;;;;;50.80;24.75;;;;;;;32.85;35.67;99467.16;5098986;27;20030;-57
2022/07/20 10:38:41;;;;;;;45.03;25.08;;;;;;;33.71;34.94;99470.38;5118252;27;20030;-59
2022/07/20 10:44:20;;;;;;;46.33;24.52;;;;;;;33.41;35.23;99487.31;5106480;27;20066;-56
2022/07/20 10:46:46;;;;;;;43.47;21.77;;;;;;;33.48;34.45;99503.22;5119706;27;20028;-57
2022/07/20 10:49:11;;;;;;;56.15;22.13;;;;;;;33.28;34.30;99497.97;5119106;27;20030;-57
2022/07/20 10:51:37;;;;;;;43.70;20.73;;;;;;;32.76;34.39;99502.78;5118601;27;20024;-56
2022/07/20 10:54:31;;;;;;;43.13;21.05;;;;;;;32.77;34.63;99509.91;5104367;27;20019;-56
2022/07/20 10:56:58;;;;;;;47.20;21.25;;;;;;;33.26;33.83;99514.22;5109481;27;20043;-57
2022/07/20 10:59:23;;;;;;;37.58;20.75;;;;;;;33.02;34.03;99506.50;5122710;27;20429;-56
2022/07/20 11:01:48;;;;;;;48.55;22.13;;;;;;;32.67;34.86;99505.09;5122667;27;20026;-56
2022/07/20 11:04:15;;;;;;;36.78;20.27;;;;;;;32.45;35.24;99499.34;5122819;27;20485;-56
2022/07/20 11:06:41;;;;;;;53.78;19.23;;;;;;;31.86;36.14;99497.56;5083493;27;20131;-56
2022/07/20 11:09:06;;;;;;;40.55;20.70;;;;;;;32.57;35.61;99503.03;5118768;27;20597;-56
2022/07/20 11:11:33;;;;;;;43.58;20.60;;;;;;;32.51;35.96;99496.25;5118173;27;20105;-56
2022/07/20 11:14:01;;;;;;;47.35;22.02;;;;;;;32.99;34.72;99504.50;5112230;27;20034;-56
2022/07/20 11:16:27;;;;;;;35.95;19.75;;;;;;;32.65;35.72;99501.88;5123214;27;20035;-56
2022/07/20 11:18:53;;;;;;;39.35;21.50;;;;;;;32.35;35.79;99494.50;5116303;27;20295;-56
2022/07/20 11:21:28;;;;;;;42.40;21.10;;;;;;;31.89;36.47;99500.34;5117074;27;20031;-56
2022/07/20 11:23:53;;;;;;;46.70;21.67;;;;;;;32.26;36.42;99499.56;5112541;27;20057;-56